PrentiSS Brown — WDE6848 — position and weather

sailwx.info

Track history (hours):
 
Tides and Currents Weather Stations Pressure Air Temp Water Temp Dewpoint Dewpoint Depression Visibility Wind Speed Wind Dir Waves Ship Positions

PrentiSS Brown

Owner: Port City Marine Services Inc, Muskegon, MI. More information available from US FCC via Universal Licensing System and Coast Guard Vessel Documentation Center.

Last reported at 2016-Feb-09 15:13 UTC. Time now 2016-Feb-09 15:54 UTC.
Position N 45°55' W 086°12'.

; draft 5.3 m.

Type: Other ship. MMSI: 366922280.

Date/timePositionNaut miles runAvg speedWind from/ knotsBaromVisibWave heightAir tempDewpointWater temp
2016-Feb-09 15:13N 45°55' W 086°12'1 0.2
2016-Feb-09 09:20N 45°54' W 086°12'7 8.9
2016-Feb-09 08:33N 45°47' W 086°14'  
2016-Feb-05 22:32N 45°09' W 085°45'8 8.5
2016-Feb-05 21:33N 45°14' W 085°36'9 8.6
2016-Feb-05 20:33N 45°18' W 085°25'6 6.0
2016-Feb-05 19:33N 45°19' W 085°17'0 0.3
2016-Feb-05 18:33N 45°19' W 085°18'0 0.0
2016-Feb-05 17:33N 45°19' W 085°18'0 0.0
2016-Feb-05 16:33N 45°19' W 085°18'0 0.0
2016-Feb-05 15:33N 45°19' W 085°18'0 0.0
2016-Feb-05 14:33N 45°19' W 085°18'0 0.0
2016-Feb-05 13:33N 45°19' W 085°18'0 0.0
2016-Feb-05 12:33N 45°19' W 085°18'3 2.6
2016-Feb-05 11:33N 45°19' W 085°21'9 9.3
2016-Feb-05 10:33N 45°15' W 085°33'9 9.3
2016-Feb-05 09:33N 45°10' W 085°44'  
2016-Jan-30 21:07N 45°00' W 085°57'12 7.8
2016-Jan-30 19:33N 45°09' W 085°45'8 7.7
2016-Jan-30 18:33N 45°14' W 085°36'8 7.8
2016-Jan-30 17:33N 45°17' W 085°26'7 6.7
2016-Jan-30 16:33N 45°20' W 085°17'1 0.6
2016-Jan-30 15:33N 45°19' W 085°18'  
Track history (hours):
 
Tides and Currents Weather Stations Pressure Air Temp Water Temp Dewpoint Dewpoint Depression Visibility Wind Speed Wind Dir Waves Ship Positions

PrentiSS Brown

Owner: Port City Marine Services Inc, Muskegon, MI. More information available from US FCC via Universal Licensing System and Coast Guard Vessel Documentation Center.

Last reported at 2016-Feb-09 15:13 UTC. Time now 2016-Feb-09 15:54 UTC.
Position N 45°55' W 086°12'.

; draft 5.3 m.

Type: Other ship. MMSI: 366922280.

Date/timePositionNaut miles runAvg speedWind from/ knotsBaromVisibWave heightAir tempDewpointWater temp
2016-Feb-09 15:13N 45°55' W 086°12'1 0.2
2016-Feb-09 09:20N 45°54' W 086°12'7 8.9
2016-Feb-09 08:33N 45°47' W 086°14'  
2016-Feb-05 22:32N 45°09' W 085°45'8 8.5
2016-Feb-05 21:33N 45°14' W 085°36'9 8.6
2016-Feb-05 20:33N 45°18' W 085°25'6 6.0
2016-Feb-05 19:33N 45°19' W 085°17'0 0.3
2016-Feb-05 18:33N 45°19' W 085°18'0 0.0
2016-Feb-05 17:33N 45°19' W 085°18'0 0.0
2016-Feb-05 16:33N 45°19' W 085°18'0 0.0
2016-Feb-05 15:33N 45°19' W 085°18'0 0.0
2016-Feb-05 14:33N 45°19' W 085°18'0 0.0
2016-Feb-05 13:33N 45°19' W 085°18'0 0.0
2016-Feb-05 12:33N 45°19' W 085°18'3 2.6
2016-Feb-05 11:33N 45°19' W 085°21'9 9.3
2016-Feb-05 10:33N 45°15' W 085°33'9 9.3
2016-Feb-05 09:33N 45°10' W 085°44'  
2016-Jan-30 21:07N 45°00' W 085°57'12 7.8
2016-Jan-30 19:33N 45°09' W 085°45'8 7.7
2016-Jan-30 18:33N 45°14' W 085°36'8 7.8
2016-Jan-30 17:33N 45°17' W 085°26'7 6.7
2016-Jan-30 16:33N 45°20' W 085°17'1 0.6
2016-Jan-30 15:33N 45°19' W 085°18'  

Dump ship's entire track history